createdAt,value
2018-05-21T00:00:46.542Z,48.79
2018-05-21T00:01:50.758Z,48.85
2018-05-21T00:02:54.894Z,48.87
2018-05-21T00:04:00.324Z,48.98
2018-05-21T00:05:05.256Z,48.83
2018-05-21T00:06:09.466Z,48.66
2018-05-21T00:07:13.712Z,48.78
2018-05-21T00:08:17.846Z,49.20
2018-05-21T00:09:22.028Z,49.42
2018-05-21T00:10:26.227Z,49.64
2018-05-21T00:11:30.656Z,49.87
2018-05-21T00:12:35.084Z,50.19
2018-05-21T00:13:39.286Z,50.22
2018-05-21T00:14:43.437Z,50.27
2018-05-21T00:15:47.693Z,50.39
2018-05-21T00:16:51.900Z,50.56
2018-05-21T00:17:56.016Z,50.90
2018-05-21T00:19:01.370Z,51.06
2018-05-21T00:20:06.244Z,51.25
2018-05-21T00:21:10.492Z,51.42
2018-05-21T00:22:14.593Z,51.53
2018-05-21T00:23:18.722Z,51.37
2018-05-21T00:24:22.837Z,51.30
2018-05-21T00:25:27.367Z,51.40
2018-05-21T00:26:31.490Z,51.41
2018-05-21T00:27:35.583Z,51.70
2018-05-21T00:28:39.776Z,51.70
2018-05-21T00:29:43.904Z,51.86
2018-05-21T00:30:48.364Z,52.13
2018-05-21T00:31:52.471Z,52.36
2018-05-21T00:32:57.799Z,52.54
2018-05-21T00:34:02.552Z,52.88
2018-05-21T00:35:06.872Z,53.24
2018-05-21T00:36:10.966Z,53.44
2018-05-21T00:37:15.089Z,53.60
2018-05-21T00:38:19.491Z,53.63
2018-05-21T00:39:23.610Z,53.66
2018-05-21T00:40:27.818Z,53.67
2018-05-21T00:41:31.928Z,53.72
2018-05-21T00:42:36.032Z,53.80
2018-05-21T00:43:40.221Z,53.88
2018-05-21T00:44:44.742Z,53.84
2018-05-21T00:45:49.174Z,53.82
2018-05-21T00:46:53.996Z,53.69
2018-05-21T00:47:58.113Z,53.53
2018-05-21T00:49:02.237Z,53.65
2018-05-21T00:50:06.676Z,53.62
2018-05-21T00:51:11.134Z,52.98
2018-05-21T00:52:15.543Z,52.47
2018-05-21T00:53:19.632Z,51.96
2018-05-21T00:54:23.753Z,51.53
2018-05-21T00:55:38.185Z,51.47
2018-05-21T00:56:42.696Z,51.66
2018-05-21T00:57:46.852Z,51.68
2018-05-21T00:58:50.969Z,51.63
2018-05-21T00:59:55.074Z,51.86
2018-05-21T01:01:00.181Z,51.83
2018-05-21T01:02:05.360Z,51.76
2018-05-21T01:03:09.805Z,51.92
2018-05-21T01:04:13.939Z,51.60
2018-05-21T01:05:18.036Z,51.43
2018-05-21T01:06:22.244Z,51.43
2018-05-21T01:07:26.408Z,51.48
2018-05-21T01:08:30.509Z,51.75
2018-05-21T01:09:34.657Z,52.05
2018-05-21T01:10:38.776Z,52.37
2018-05-21T01:11:42.950Z,52.67
2018-05-21T01:12:47.088Z,52.62
2018-05-21T01:13:51.216Z,52.80
2018-05-21T01:14:55.712Z,52.60
2018-05-21T01:16:00.042Z,52.46
2018-05-21T01:17:04.209Z,52.61
2018-05-21T01:18:08.638Z,52.69
2018-05-21T01:19:12.816Z,52.70
2018-05-21T01:20:17.236Z,52.83
2018-05-21T01:21:21.391Z,52.93
2018-05-21T01:22:25.500Z,53.07
2018-05-21T01:23:29.756Z,52.93
2018-05-21T01:24:33.915Z,52.90
2018-05-21T01:25:38.000Z,53.10
2018-05-21T01:26:42.437Z,53.05
2018-05-21T01:27:46.565Z,53.23
2018-05-21T01:28:50.772Z,53.27
2018-05-21T01:29:55.582Z,53.14
2018-05-21T01:31:00.727Z,53.45
2018-05-21T01:32:05.179Z,53.61
2018-05-21T01:33:09.305Z,53.41
2018-05-21T01:34:13.427Z,53.51
2018-05-21T01:35:17.540Z,53.72
2018-05-21T01:36:21.746Z,53.59
2018-05-21T01:37:25.833Z,53.10
2018-05-21T01:38:30.226Z,52.88
2018-05-21T01:39:34.407Z,52.82
2018-05-21T01:40:38.508Z,53.00
2018-05-21T01:41:42.744Z,53.22
2018-05-21T01:42:46.837Z,53.19
2018-05-21T01:43:50.948Z,53.04
2018-05-21T01:44:55.448Z,52.70
2018-05-21T01:46:00.017Z,52.55
2018-05-21T01:47:04.900Z,52.64
2018-05-21T01:48:09.037Z,52.60
2018-05-21T01:49:13.140Z,52.91
2018-05-21T01:50:17.307Z,53.19
2018-05-21T01:51:21.715Z,53.17
2018-05-21T01:52:25.832Z,53.03
2018-05-21T01:53:29.928Z,53.02
2018-05-21T01:54:34.127Z,53.16
2018-05-21T01:55:38.318Z,53.07
2018-05-21T01:56:42.498Z,53.31
2018-05-21T01:57:46.619Z,53.53
2018-05-21T01:58:50.743Z,53.56
2018-05-21T01:59:54.940Z,53.56
2018-05-21T02:01:00.378Z,53.78
2018-05-21T02:02:04.721Z,53.86
2018-05-21T02:03:08.856Z,53.83
2018-05-21T02:04:13.288Z,53.51
2018-05-21T02:05:17.496Z,53.66
2018-05-21T02:06:21.653Z,53.88
2018-05-21T02:07:25.790Z,54.08
2018-05-21T02:08:29.987Z,53.92
2018-05-21T02:09:34.435Z,53.86
2018-05-21T02:10:38.553Z,53.95
2018-05-21T02:11:42.654Z,54.17
2018-05-21T02:12:46.781Z,54.48
2018-05-21T02:13:51.040Z,54.82
2018-05-21T02:14:55.262Z,54.93
2018-05-21T02:16:00.939Z,54.93
2018-05-21T02:17:05.984Z,54.88
2018-05-21T02:18:10.110Z,55.04
2018-05-21T02:19:14.319Z,54.76
2018-05-21T02:20:18.494Z,54.85
2018-05-21T02:21:22.600Z,54.75
2018-05-21T02:22:26.779Z,54.85
2018-05-21T02:23:30.896Z,55.06
2018-05-21T02:24:34.996Z,55.04
2018-05-21T02:25:48.102Z,54.96
2018-05-21T02:26:52.614Z,54.86
2018-05-21T02:27:57.179Z,54.96
2018-05-21T02:29:03.069Z,55.02
2018-05-21T02:30:07.390Z,54.90
2018-05-21T02:31:11.977Z,55.23
2018-05-21T02:32:16.097Z,55.21
2018-05-21T02:33:20.813Z,55.45
2018-05-21T02:34:25.366Z,55.24
2018-05-21T02:35:30.504Z,55.49
2018-05-21T02:36:34.960Z,55.47
2018-05-21T02:37:39.414Z,55.45
2018-05-21T02:38:43.634Z,55.02
2018-05-21T02:39:49.722Z,54.90
2018-05-21T02:40:54.034Z,55.06
2018-05-21T02:41:59.123Z,55.13
2018-05-21T02:43:04.340Z,55.17
2018-05-21T02:44:08.455Z,55.38
2018-05-21T02:45:14.338Z,55.44
2018-05-21T02:46:18.773Z,55.74
2018-05-21T02:47:22.960Z,55.98
2018-05-21T02:48:31.025Z,56.16
2018-05-21T02:49:35.227Z,56.18
2018-05-21T02:50:42.094Z,55.79
2018-05-21T02:51:56.325Z,56.13
2018-05-21T02:53:01.118Z,56.14
2018-05-21T02:54:06.436Z,56.26
2018-05-21T02:55:10.677Z,56.30
2018-05-21T02:56:14.809Z,56.43
2018-05-21T02:57:18.913Z,56.40
2018-05-21T02:58:23.014Z,56.16
2018-05-21T02:59:27.136Z,55.93
2018-05-21T03:00:32.405Z,55.94
2018-05-21T03:01:36.529Z,56.11
2018-05-21T03:02:41.958Z,56.19
2018-05-21T03:03:46.186Z,56.52
2018-05-21T03:04:50.370Z,56.68
2018-05-21T03:05:56.195Z,56.92
2018-05-21T03:07:01.441Z,56.58
2018-05-21T03:08:05.801Z,56.34
2018-05-21T03:09:10.391Z,56.63
2018-05-21T03:10:14.582Z,56.30
2018-05-21T03:11:18.764Z,56.42
2018-05-21T03:12:22.883Z,56.35
2018-05-21T03:13:28.295Z,56.54
2018-05-21T03:14:32.516Z,56.77
2018-05-21T03:15:36.919Z,56.94
2018-05-21T03:16:41.354Z,57.03
2018-05-21T03:17:45.549Z,56.94
2018-05-21T03:18:54.357Z,57.03
2018-05-21T03:19:59.301Z,56.89
2018-05-21T03:21:03.719Z,56.80
2018-05-21T03:22:07.900Z,56.92
2018-05-21T03:23:12.008Z,56.93
2018-05-21T03:24:16.422Z,56.98
2018-05-21T03:25:20.497Z,57.40
2018-05-21T03:26:24.682Z,57.19
2018-05-21T03:27:28.780Z,57.29
2018-05-21T03:28:32.954Z,57.21
2018-05-21T03:29:37.147Z,57.32
2018-05-21T03:30:42.201Z,57.05
2018-05-21T03:31:46.324Z,56.86
2018-05-21T03:32:50.591Z,56.86
2018-05-21T03:33:54.896Z,56.86
2018-05-21T03:34:59.513Z,56.95
2018-05-21T03:36:04.617Z,57.12
2018-05-21T03:37:09.075Z,57.14
2018-05-21T03:38:13.170Z,57.34
2018-05-21T03:39:18.329Z,57.74
2018-05-21T03:40:22.451Z,58.14
2018-05-21T03:41:26.760Z,58.27
2018-05-21T03:42:32.671Z,57.66
2018-05-21T03:43:36.855Z,57.64
2018-05-21T03:44:41.024Z,57.24
2018-05-21T03:45:49.459Z,57.36
2018-05-21T03:46:53.923Z,57.17
2018-05-21T03:47:58.817Z,57.33
2018-05-21T03:49:02.973Z,56.98
2018-05-21T03:50:08.037Z,56.83
2018-05-21T03:51:12.167Z,56.61
2018-05-21T03:52:16.342Z,56.75
2018-05-21T03:53:20.483Z,56.65
2018-05-21T03:54:24.584Z,56.66
2018-05-21T03:55:28.770Z,56.63
2018-05-21T03:56:33.235Z,56.72
2018-05-21T03:57:37.349Z,56.70
2018-05-21T04:01:54.919Z,56.45
2018-05-21T04:03:30.968Z,56.63
2018-05-21T04:04:35.262Z,56.76
2018-05-21T04:05:39.573Z,57.13
2018-05-21T04:06:43.943Z,57.19
2018-05-21T04:07:48.054Z,56.80
2018-05-21T04:08:52.558Z,56.88
2018-05-21T04:09:57.584Z,56.66
2018-05-21T04:11:02.573Z,56.66
2018-05-21T04:12:06.914Z,56.26
2018-05-21T04:13:11.241Z,56.07
2018-05-21T04:14:15.344Z,55.96
2018-05-21T04:15:19.536Z,55.82
2018-05-21T04:16:23.946Z,55.97
2018-05-21T04:17:28.059Z,55.69
2018-05-21T04:18:32.160Z,55.46
2018-05-21T04:19:36.271Z,54.86
2018-05-21T04:20:40.470Z,54.49
2018-05-21T04:21:44.576Z,54.48
2018-05-21T04:22:48.998Z,54.54
2018-05-21T04:23:53.101Z,54.40
2018-05-21T04:24:57.745Z,54.36
2018-05-21T04:26:02.175Z,54.58
2018-05-21T04:27:06.280Z,54.90
2018-05-21T04:28:10.939Z,54.55
2018-05-21T04:29:15.036Z,54.33
2018-05-21T04:30:19.609Z,54.19
2018-05-21T04:31:23.744Z,53.81
2018-05-21T04:32:27.959Z,53.55
2018-05-21T04:33:32.080Z,53.00
2018-05-21T04:34:36.190Z,52.50
2018-05-21T04:35:40.774Z,52.57
2018-05-21T04:36:45.216Z,52.49
2018-05-21T04:37:49.601Z,52.24
2018-05-21T04:38:54.071Z,51.63
2018-05-21T04:39:58.956Z,51.59
2018-05-21T04:41:03.440Z,51.04
2018-05-21T04:42:08.007Z,50.71
2018-05-21T04:43:13.371Z,50.50
2018-05-21T04:44:17.819Z,50.11
2018-05-21T04:45:22.654Z,50.28
2018-05-21T04:46:26.845Z,50.40
2018-05-21T04:47:30.958Z,50.69
2018-05-21T04:48:35.055Z,50.78
2018-05-21T04:49:39.168Z,50.63
2018-05-21T04:50:43.286Z,50.54
2018-05-21T04:51:48.133Z,50.09
2018-05-21T04:52:52.214Z,49.92
2018-05-21T04:53:56.327Z,49.24
2018-05-21T04:55:00.436Z,49.00
2018-05-21T04:56:04.600Z,49.06
2018-05-21T04:57:08.692Z,48.85
2018-05-21T04:58:13.179Z,48.65
2018-05-21T04:59:17.294Z,48.64
2018-05-21T05:00:22.581Z,49.02
2018-05-21T05:01:27.121Z,48.92
2018-05-21T05:02:31.298Z,48.91
2018-05-21T05:03:35.381Z,49.28
2018-05-21T05:04:39.469Z,49.02
2018-05-21T05:05:43.562Z,48.29
2018-05-21T05:06:47.748Z,48.80
2018-05-21T05:07:51.919Z,49.20
2018-05-21T05:08:56.009Z,48.62
2018-05-21T05:10:00.114Z,48.27
2018-05-21T05:11:04.524Z,48.73
2018-05-21T05:12:08.611Z,49.75
2018-05-21T05:13:12.827Z,48.69
2018-05-21T05:14:17.891Z,48.15
2018-05-21T05:15:23.378Z,48.15
2018-05-21T05:16:27.494Z,47.27
2018-05-21T05:17:31.916Z,47.05
2018-05-21T05:18:36.052Z,46.44
2018-05-21T05:19:40.154Z,46.65
2018-05-21T05:20:44.273Z,46.52
2018-05-21T05:21:48.471Z,46.96
2018-05-21T05:22:52.560Z,46.26
2018-05-21T05:23:57.003Z,45.99
2018-05-21T05:25:01.186Z,45.77
2018-05-21T05:26:05.326Z,44.96
2018-05-21T05:27:09.427Z,45.01
2018-05-21T05:28:13.557Z,44.25
2018-05-21T05:29:19.784Z,44.01
2018-05-21T05:30:24.526Z,43.88
2018-05-21T05:31:28.651Z,43.43
2018-05-21T05:32:33.099Z,43.12
2018-05-21T05:33:37.332Z,42.63
2018-05-21T05:34:41.442Z,42.80
2018-05-21T05:35:45.967Z,42.94
2018-05-21T05:36:50.075Z,43.54
2018-05-21T05:37:54.191Z,43.51
2018-05-21T05:38:58.389Z,43.54
2018-05-21T05:40:03.045Z,43.34
2018-05-21T05:41:07.564Z,43.82
2018-05-21T05:42:12.275Z,42.40
2018-05-21T05:43:17.442Z,42.25
2018-05-21T05:44:21.637Z,42.78
2018-05-21T05:45:26.144Z,42.57
2018-05-21T05:46:30.324Z,41.66
2018-05-21T05:47:34.413Z,41.72
2018-05-21T05:48:38.837Z,41.20
2018-05-21T05:49:43.020Z,41.14
2018-05-21T05:50:47.241Z,41.58
2018-05-21T05:51:51.355Z,41.77
2018-05-21T05:52:55.543Z,41.47
2018-05-21T05:53:59.659Z,41.29
2018-05-21T05:55:03.774Z,41.71
2018-05-21T05:56:07.879Z,41.35
2018-05-21T05:57:12.068Z,40.65
2018-05-21T05:58:16.194Z,40.61
2018-05-21T05:59:21.161Z,40.44
2018-05-21T06:00:25.707Z,40.62
2018-05-21T06:01:30.207Z,40.63
2018-05-21T06:02:34.301Z,40.57
2018-05-21T06:03:38.544Z,40.36
2018-05-21T06:04:42.668Z,40.59
2018-05-21T06:05:46.775Z,40.39
2018-05-21T06:06:50.941Z,40.11
2018-05-21T06:07:55.406Z,40.07
2018-05-21T06:08:59.535Z,40.26
2018-05-21T06:10:03.727Z,40.00
2018-05-21T06:11:07.848Z,39.72
2018-05-21T06:12:11.979Z,39.59
2018-05-21T06:13:16.176Z,39.61
2018-05-21T06:14:21.455Z,39.51
2018-05-21T06:15:26.083Z,40.49
2018-05-21T06:16:30.489Z,39.88
2018-05-21T06:17:34.589Z,40.10
2018-05-21T06:18:38.711Z,39.79
2018-05-21T06:19:42.875Z,39.33
2018-05-21T06:20:47.312Z,39.14
2018-05-21T06:21:51.448Z,39.11
2018-05-21T06:22:55.663Z,39.09
2018-05-21T06:23:59.857Z,39.58
2018-05-21T06:25:04.057Z,40.27
2018-05-21T06:26:08.541Z,39.35
2018-05-21T06:27:13.595Z,39.39
2018-05-21T06:28:17.725Z,38.79
2018-05-21T06:29:22.470Z,38.29
2018-05-21T06:30:26.672Z,38.36
2018-05-21T06:31:31.195Z,38.88
2018-05-21T06:32:35.611Z,39.00
2018-05-21T06:33:39.757Z,38.73
2018-05-21T06:34:43.849Z,39.36
2018-05-21T06:35:47.945Z,39.30
2018-05-21T06:36:52.164Z,39.26
2018-05-21T06:37:56.294Z,38.93
2018-05-21T06:39:00.749Z,39.25
2018-05-21T06:40:04.961Z,39.59
2018-05-21T06:41:09.104Z,39.29
2018-05-21T06:42:14.589Z,38.93
2018-05-21T06:43:18.910Z,38.44
2018-05-21T06:44:23.128Z,38.59
2018-05-21T06:45:27.494Z,38.49
2018-05-21T06:46:31.596Z,37.89
2018-05-21T06:47:35.776Z,37.67
2018-05-21T06:48:39.921Z,38.10
2018-05-21T06:49:44.031Z,37.96
2018-05-21T06:50:48.111Z,38.06
2018-05-21T06:51:52.306Z,37.63
2018-05-21T06:52:56.821Z,37.70
2018-05-21T06:54:00.942Z,37.96
2018-05-21T06:55:05.218Z,38.28
2018-05-21T06:56:09.340Z,38.17
2018-05-21T06:57:14.797Z,37.91
2018-05-21T06:58:19.852Z,38.38
2018-05-21T06:59:23.994Z,38.35
2018-05-21T07:00:28.373Z,38.25
2018-05-21T07:01:32.795Z,37.98
2018-05-21T07:02:37.633Z,38.04
2018-05-21T07:03:41.741Z,38.59
2018-05-21T07:04:45.964Z,38.39
2018-05-21T07:05:50.093Z,37.96
2018-05-21T07:06:54.189Z,38.05
2018-05-21T07:07:58.454Z,38.34
2018-05-21T07:09:02.980Z,38.35
2018-05-21T07:10:07.098Z,37.06
2018-05-21T07:11:11.196Z,36.98
2018-05-21T07:12:15.421Z,37.38
2018-05-21T07:13:20.429Z,37.62
2018-05-21T07:14:24.513Z,37.72
2018-05-21T07:15:29.063Z,37.93
2018-05-21T07:16:33.456Z,37.64
2018-05-21T07:17:37.580Z,38.15
2018-05-21T07:18:41.775Z,37.75
2018-05-21T07:19:45.893Z,37.52
2018-05-21T07:20:50.099Z,37.45
2018-05-21T07:21:54.550Z,37.10
2018-05-21T07:22:58.645Z,37.02
2018-05-21T07:24:02.866Z,36.98
2018-05-21T07:25:07.126Z,36.96
2018-05-21T07:26:11.834Z,36.09
2018-05-21T07:27:15.937Z,36.12
2018-05-21T07:28:20.474Z,35.71
2018-05-21T07:29:24.584Z,36.53
2018-05-21T07:30:29.039Z,36.88
2018-05-21T07:31:33.261Z,36.22
2018-05-21T07:32:37.371Z,36.61
2018-05-21T07:33:41.967Z,36.07
2018-05-21T07:34:46.657Z,36.37
2018-05-21T07:35:50.797Z,36.12
2018-05-21T07:36:55.022Z,36.32
2018-05-21T07:37:59.328Z,35.78
2018-05-21T07:39:03.842Z,35.82
2018-05-21T07:40:07.986Z,35.80
2018-05-21T07:41:12.081Z,36.01
2018-05-21T07:42:16.219Z,35.16
2018-05-21T07:43:21.011Z,35.68
2018-05-21T07:44:25.120Z,35.12
2018-05-21T07:45:29.622Z,35.25
2018-05-21T07:46:33.739Z,35.71
2018-05-21T07:47:38.009Z,35.83
2018-05-21T07:48:42.376Z,35.81
2018-05-21T07:49:46.558Z,35.56
2018-05-21T07:50:50.720Z,36.20
2018-05-21T07:51:55.161Z,36.33
2018-05-21T07:52:59.352Z,36.02
2018-05-21T07:54:03.464Z,36.11
2018-05-21T07:55:12.299Z,34.38
2018-05-21T07:56:18.407Z,35.03
2018-05-21T07:57:23.138Z,35.15
2018-05-21T07:58:27.626Z,35.35
2018-05-21T07:59:31.809Z,35.69
2018-05-21T08:00:36.117Z,35.78
2018-05-21T08:01:40.261Z,35.78
2018-05-21T08:02:44.369Z,35.31
2018-05-21T08:03:48.562Z,35.40
2018-05-21T08:04:52.997Z,35.72
2018-05-21T08:05:57.272Z,35.73
2018-05-21T08:07:01.423Z,35.21
2018-05-21T08:08:05.607Z,34.92
2018-05-21T08:09:09.755Z,34.41
2018-05-21T08:10:13.905Z,34.35
2018-05-21T08:11:18.117Z,34.24
2018-05-21T08:12:23.209Z,34.22
2018-05-21T08:13:27.408Z,34.48
2018-05-21T08:14:31.566Z,34.13
2018-05-21T08:15:36.121Z,33.98
2018-05-21T08:16:40.432Z,33.95
2018-05-21T08:17:44.944Z,33.98
2018-05-21T08:18:49.097Z,33.45
2018-05-21T08:19:53.427Z,33.38
2018-05-21T08:20:57.560Z,32.97
2018-05-21T08:22:01.798Z,32.78
2018-05-21T08:23:05.996Z,33.15
2018-05-21T08:24:10.162Z,33.13
2018-05-21T08:25:14.456Z,33.46
2018-05-21T08:26:18.622Z,32.78
2018-05-21T08:27:23.218Z,31.54
2018-05-21T08:28:27.248Z,31.82
2018-05-21T08:29:31.350Z,32.24
2018-05-21T08:30:35.516Z,32.66
2018-05-21T08:31:39.764Z,31.43
2018-05-21T08:32:43.933Z,31.05
2018-05-21T08:33:48.382Z,30.60
2018-05-21T08:34:52.509Z,31.44
2018-05-21T08:35:56.709Z,31.38
2018-05-21T08:37:00.852Z,31.75
2018-05-21T08:38:04.996Z,32.10
2018-05-21T08:39:09.237Z,32.02
2018-05-21T08:40:13.712Z,31.85
2018-05-21T08:41:18.552Z,31.95
2018-05-21T08:42:24.389Z,32.32
2018-05-21T08:43:28.526Z,31.95
2018-05-21T08:44:32.662Z,31.27
2018-05-21T08:45:37.125Z,30.81
2018-05-21T08:46:41.822Z,30.79
2018-05-21T08:47:46.475Z,31.21
2018-05-21T08:48:50.668Z,30.99
2018-05-21T08:49:54.737Z,30.67
2018-05-21T08:50:59.007Z,29.75
2018-05-21T08:52:03.129Z,30.33
2018-05-21T08:53:07.633Z,30.07
2018-05-21T08:54:11.748Z,30.09
2018-05-21T08:55:15.962Z,30.02
2018-05-21T08:56:20.690Z,28.72
2018-05-21T08:57:24.809Z,29.05
2018-05-21T08:58:29.668Z,28.29
2018-05-21T08:59:34.091Z,29.27
2018-05-21T09:00:38.562Z,28.87
2018-05-21T09:01:42.941Z,28.98
2018-05-21T09:02:47.099Z,29.02
2018-05-21T09:03:51.208Z,29.37
2018-05-21T09:04:55.413Z,29.00
2018-05-21T09:05:59.859Z,28.57
2018-05-21T09:07:04.061Z,28.34
2018-05-21T09:08:08.206Z,27.96
2018-05-21T09:09:12.346Z,27.66
2018-05-21T09:10:16.832Z,28.02
2018-05-21T09:11:22.009Z,27.91
2018-05-21T09:12:26.608Z,27.41
2018-05-21T09:13:30.959Z,27.32
2018-05-21T09:14:35.159Z,27.06
2018-05-21T09:15:39.278Z,26.91
2018-05-21T09:16:43.454Z,27.25
2018-05-21T09:17:47.978Z,26.76
2018-05-21T09:18:52.576Z,27.16
2018-05-21T09:19:56.713Z,27.35
2018-05-21T09:21:00.895Z,27.33
2018-05-21T09:22:05.110Z,26.54
2018-05-21T09:23:09.299Z,26.19
2018-05-21T09:24:13.835Z,26.85
2018-05-21T09:25:19.163Z,27.78
2018-05-21T09:26:24.085Z,27.67
2018-05-21T09:27:29.206Z,27.23
2018-05-21T09:28:33.445Z,26.80
2018-05-21T09:29:37.590Z,27.42
2018-05-21T09:30:42.553Z,27.78
2018-05-21T09:31:46.852Z,27.33
2018-05-21T09:32:51.369Z,27.43
2018-05-21T09:33:55.576Z,27.43
2018-05-21T09:34:59.715Z,27.03
2018-05-21T09:36:03.928Z,27.19
2018-05-21T09:37:08.106Z,27.75
2018-05-21T09:38:12.281Z,27.85
2018-05-21T09:39:16.426Z,27.16
2018-05-21T09:40:20.850Z,27.17
2018-05-21T09:41:24.957Z,27.62
2018-05-21T09:42:29.085Z,27.64
2018-05-21T09:43:33.571Z,27.34
2018-05-21T09:44:37.813Z,27.37
2018-05-21T09:45:42.117Z,27.26
2018-05-21T09:46:46.740Z,27.04
2018-05-21T09:47:50.851Z,26.29
2018-05-21T09:48:55.016Z,26.92
2018-05-21T09:49:59.553Z,26.87
2018-05-21T09:51:03.716Z,27.19
2018-05-21T09:52:07.876Z,27.38
2018-05-21T09:53:12.025Z,27.42
2018-05-21T09:54:16.146Z,26.67
2018-05-21T09:55:21.974Z,27.11
2018-05-21T09:56:26.464Z,26.59
2018-05-21T09:57:30.577Z,26.07
2018-05-21T09:58:34.763Z,26.71
2018-05-21T09:59:38.894Z,26.57
2018-05-21T10:00:43.233Z,27.51
2018-05-21T10:01:48.144Z,27.50
2018-05-21T10:02:52.606Z,27.18
2018-05-21T10:03:56.835Z,27.13
2018-05-21T10:05:00.965Z,27.02
2018-05-21T10:06:05.141Z,26.26
2018-05-21T10:07:09.441Z,25.80
2018-05-21T10:08:13.941Z,26.00
2018-05-21T10:09:18.093Z,26.22
2018-05-21T10:10:23.127Z,25.49
2018-05-21T10:11:27.265Z,25.91
2018-05-21T10:12:31.401Z,26.22
2018-05-21T10:13:35.638Z,26.44
2018-05-21T10:14:40.288Z,26.40
2018-05-21T10:15:44.781Z,26.67
2018-05-21T10:16:49.221Z,27.21
2018-05-21T10:17:53.340Z,27.40
2018-05-21T10:18:57.570Z,27.38
2018-05-21T10:20:01.736Z,26.94
2018-05-21T10:21:06.164Z,26.64
2018-05-21T10:22:10.303Z,26.37
2018-05-21T10:23:14.433Z,26.07
2018-05-21T10:24:18.646Z,25.61
2018-05-21T10:25:22.996Z,25.41
2018-05-21T10:26:27.684Z,24.87
2018-05-21T10:27:31.787Z,24.83
2018-05-21T10:28:36.008Z,25.01
2018-05-21T10:29:40.152Z,24.85
2018-05-21T10:30:44.503Z,25.15
2018-05-21T10:31:48.634Z,25.12
2018-05-21T10:32:52.764Z,25.23
2018-05-21T10:33:57.301Z,25.48
2018-05-21T10:35:01.467Z,24.50
2018-05-21T10:36:05.669Z,24.55
2018-05-21T10:37:09.995Z,24.97
2018-05-21T10:38:14.183Z,24.60
2018-05-21T10:39:19.272Z,23.10
2018-05-21T10:40:23.776Z,23.45
2018-05-21T10:41:28.581Z,23.52
2018-05-21T10:42:32.726Z,24.02
2018-05-21T10:43:36.914Z,23.30
2018-05-21T10:44:41.051Z,23.86
2018-05-21T10:45:45.382Z,24.12
2018-05-21T10:46:50.089Z,24.39
2018-05-21T10:47:54.545Z,24.37
2018-05-21T10:48:58.909Z,24.62
2018-05-21T10:50:03.025Z,24.78
2018-05-21T10:51:07.215Z,25.15
2018-05-21T10:52:11.344Z,24.47
2018-05-21T10:53:15.623Z,24.53
2018-05-21T10:54:19.964Z,24.73
2018-05-21T10:55:24.193Z,24.86
2018-05-21T10:56:29.032Z,25.23
2018-05-21T10:57:33.283Z,24.51
2018-05-21T10:58:37.522Z,24.08
2018-05-21T10:59:41.724Z,24.02
2018-05-21T11:00:46.228Z,24.31
2018-05-21T11:01:50.389Z,23.63
2018-05-21T11:02:54.974Z,22.58
2018-05-21T11:03:59.182Z,22.93
2018-05-21T11:05:03.325Z,23.67
2018-05-21T11:06:07.600Z,23.48
2018-05-21T11:07:11.837Z,23.10
2018-05-21T11:08:15.994Z,22.58
2018-05-21T11:09:20.457Z,23.00
2018-05-21T11:10:24.590Z,22.89
2018-05-21T11:11:28.705Z,22.60
2018-05-21T11:12:33.778Z,23.05
2018-05-21T11:13:38.820Z,22.82
2018-05-21T11:14:43.936Z,22.64
2018-05-21T11:15:48.573Z,22.76
2018-05-21T11:16:52.792Z,22.32
2018-05-21T11:17:56.956Z,22.36
2018-05-21T11:19:01.098Z,22.50
2018-05-21T11:20:05.274Z,21.88
2018-05-21T11:21:09.384Z,22.02
2018-05-21T11:22:13.890Z,21.55
2018-05-21T11:23:18.024Z,21.57
2018-05-21T11:24:22.313Z,22.33
2018-05-21T11:25:26.448Z,22.31
2018-05-21T11:26:31.413Z,22.69
2018-05-21T11:27:35.608Z,22.36
2018-05-21T11:28:40.640Z,22.33
2018-05-21T11:29:44.784Z,22.68
2018-05-21T11:30:49.399Z,22.76
2018-05-21T11:31:54.317Z,22.95
2018-05-21T11:32:58.625Z,22.54
2018-05-21T11:34:03.500Z,22.12
2018-05-21T11:35:07.802Z,22.70
2018-05-21T11:36:11.941Z,22.52
2018-05-21T11:37:16.150Z,22.71
2018-05-21T11:38:20.384Z,22.91
2018-05-21T11:39:24.698Z,22.86
2018-05-21T11:40:28.867Z,22.97
2018-05-21T11:41:33.502Z,22.29
2018-05-21T11:42:38.344Z,23.31
2018-05-21T11:43:42.508Z,23.52
2018-05-21T11:44:46.667Z,22.86
2018-05-21T11:45:51.309Z,22.54
2018-05-21T11:46:55.532Z,22.85
2018-05-21T11:47:59.663Z,22.77
2018-05-21T11:49:03.799Z,21.53
2018-05-21T11:50:08.042Z,21.96
2018-05-21T11:51:12.165Z,21.54
2018-05-21T11:52:16.672Z,20.99
2018-05-21T11:53:20.855Z,20.77
2018-05-21T11:54:25.111Z,20.61
2018-05-21T11:55:29.290Z,20.59
2018-05-21T11:56:33.903Z,20.93
2018-05-21T11:57:38.738Z,21.25
2018-05-21T11:58:42.879Z,20.99
2018-05-21T11:59:47.067Z,20.42
2018-05-21T12:00:51.525Z,21.37
2018-05-21T12:01:55.930Z,21.59
2018-05-21T12:03:00.088Z,21.62
2018-05-21T12:04:04.318Z,22.13
2018-05-21T12:05:08.581Z,22.10
2018-05-21T12:06:12.745Z,21.81
2018-05-21T12:07:16.999Z,21.63
2018-05-21T12:08:21.161Z,21.81
2018-05-21T12:09:25.674Z,22.27
2018-05-21T12:10:29.895Z,23.11
2018-05-21T12:11:34.795Z,22.92
2018-05-21T12:12:38.972Z,23.32
2018-05-21T12:13:43.972Z,23.15
2018-05-21T12:14:48.179Z,23.48
2018-05-21T12:15:53.053Z,23.52
2018-05-21T12:16:57.174Z,23.69
2018-05-21T12:18:01.329Z,22.67
2018-05-21T12:19:05.444Z,22.14
2018-05-21T12:20:09.613Z,22.17
2018-05-21T12:21:13.836Z,21.47
2018-05-21T12:22:18.313Z,22.19
2018-05-21T12:23:23.329Z,22.93
2018-05-21T12:24:27.541Z,23.00
2018-05-21T12:25:31.661Z,22.83
2018-05-21T12:26:36.797Z,21.95
2018-05-21T12:27:41.605Z,21.69
2018-05-21T12:28:45.840Z,22.71
2018-05-21T12:29:50.004Z,22.89
2018-05-21T12:30:54.782Z,21.56
2018-05-21T12:31:58.997Z,21.50
2018-05-21T12:33:03.447Z,21.68
2018-05-21T12:34:07.817Z,21.13
2018-05-21T12:35:12.211Z,19.98
2018-05-21T12:36:16.801Z,19.90
2018-05-21T12:37:20.915Z,20.47
2018-05-21T12:38:25.034Z,20.25
2018-05-21T12:39:29.290Z,19.65
2018-05-21T12:40:34.473Z,20.80
2018-05-21T12:41:38.619Z,21.76
2018-05-21T12:42:43.534Z,22.34
2018-05-21T12:43:47.674Z,22.65
2018-05-21T12:44:52.210Z,22.22
2018-05-21T12:45:56.650Z,21.21
2018-05-21T12:47:00.765Z,20.19
2018-05-21T12:48:08.972Z,19.50
2018-05-21T12:49:17.598Z,20.40
2018-05-21T12:50:24.065Z,20.48
2018-05-21T12:51:31.135Z,20.65
2018-05-21T12:52:38.944Z,21.05
2018-05-21T12:53:45.681Z,20.87
2018-05-21T12:54:52.119Z,20.56
2018-05-21T12:55:58.301Z,21.13
2018-05-21T12:57:02.700Z,20.89
2018-05-21T12:58:06.921Z,21.30
2018-05-21T12:59:11.058Z,21.35
2018-05-21T13:00:17.262Z,20.34
2018-05-21T13:01:21.409Z,20.87
2018-05-21T13:02:25.569Z,21.54
2018-05-21T13:03:30.117Z,20.61
2018-05-21T13:04:34.225Z,20.66
2018-05-21T13:05:38.417Z,19.68
2018-05-21T13:06:42.635Z,20.41
2018-05-21T13:07:46.843Z,20.32
2018-05-21T13:08:50.980Z,21.23
2018-05-21T13:09:55.086Z,21.50
2018-05-21T13:10:59.235Z,21.33
2018-05-21T13:12:03.373Z,20.74
2018-05-21T13:13:07.584Z,21.56
2018-05-21T13:14:11.871Z,20.92
2018-05-21T13:15:16.624Z,19.76
2018-05-21T13:16:20.918Z,19.07
2018-05-21T13:17:25.339Z,18.83
2018-05-21T13:18:29.574Z,19.19
2018-05-21T13:19:33.789Z,19.66
2018-05-21T13:20:38.225Z,19.54
2018-05-21T13:21:42.542Z,19.08
2018-05-21T13:22:46.690Z,18.90
2018-05-21T13:23:50.847Z,18.25
2018-05-21T13:24:54.974Z,17.12
2018-05-21T13:25:59.213Z,16.64
2018-05-21T13:27:03.673Z,16.49
2018-05-21T13:28:07.817Z,17.01
2018-05-21T13:29:12.077Z,17.59
2018-05-21T13:30:17.410Z,17.95
2018-05-21T13:31:21.529Z,17.69
2018-05-21T13:32:25.773Z,16.81
2018-05-21T13:33:30.313Z,18.37
2018-05-21T13:34:35.475Z,18.60
2018-05-21T13:35:39.659Z,19.37
2018-05-21T13:36:44.547Z,21.00
2018-05-21T13:37:48.707Z,20.52
2018-05-21T13:38:53.231Z,20.72
2018-05-21T13:39:57.701Z,19.59
2018-05-21T13:41:01.815Z,19.94
2018-05-21T13:42:05.972Z,19.20
2018-05-21T13:43:10.309Z,19.09
2018-05-21T13:44:14.409Z,19.84
2018-05-21T13:45:18.748Z,20.29
2018-05-21T13:46:22.937Z,21.09
2018-05-21T13:47:27.111Z,20.19
2018-05-21T13:48:31.298Z,19.44
2018-05-21T13:49:35.405Z,18.69
2018-05-21T13:50:40.197Z,18.26
2018-05-21T13:51:45.330Z,17.58
2018-05-21T13:52:49.445Z,18.48
2018-05-21T13:53:53.564Z,18.35